Time;durP1;ratioP1;P1;durP2;ratioP2;P2;SDS_P1;SDS_P2;PMS_P1;PMS_P2;Temp;Humidity;BMP_temperature;BMP_pressure;BME280_temperature;BME280_humidity;BME280_pressure;Samples;Min_cycle;Max_cycle;Signal;HPM_P1;HPM_P2
2020/12/26 00:02:18;;;;;;;4.70;2.35;;;2.60;92.70;;;;;;5020394;28;20069;-82
2020/12/26 00:04:44;;;;;;;5.50;2.60;;;2.60;92.60;;;;;;5021910;28;20091;-83
2020/12/26 00:07:10;;;;;;;6.20;2.70;;;2.60;92.60;;;;;;5015193;28;20497;-82
2020/12/26 00:09:36;;;;;;;5.72;2.33;;;2.60;92.60;;;;;;5024967;28;20056;-80
2020/12/26 00:12:02;;;;;;;5.55;2.30;;;2.60;92.60;;;;;;5023428;28;20509;-82
2020/12/26 00:14:28;;;;;;;6.70;2.33;;;2.60;92.60;;;;;;5023657;28;20045;-83
2020/12/26 00:16:55;;;;;;;3.88;1.90;;;2.60;92.60;;;;;;5026666;28;20045;-82
2020/12/26 00:19:21;;;;;;;6.57;2.50;;;2.60;92.70;;;;;;5028021;28;20126;-82
2020/12/26 00:21:47;;;;;;;6.45;2.45;;;2.60;92.70;;;;;;5033453;28;20053;-81
2020/12/26 00:24:13;;;;;;;4.25;2.67;;;2.60;92.70;;;;;;5040073;28;20052;-81
2020/12/26 00:26:39;;;;;;;6.68;2.40;;;2.70;92.70;;;;;;5041580;28;20053;-81
2020/12/26 00:29:05;;;;;;;5.40;2.10;;;2.70;92.70;;;;;;5029927;28;20053;-80
2020/12/26 00:31:31;;;;;;;4.55;2.20;;;2.70;92.60;;;;;;5041095;28;20046;-80
2020/12/26 00:33:56;;;;;;;4.93;2.28;;;2.70;92.50;;;;;;5022303;28;20046;-80
2020/12/26 00:36:23;;;;;;;5.65;2.30;;;2.70;92.50;;;;;;5015680;28;20512;-81
2020/12/26 00:38:49;;;;;;;5.43;3.40;;;2.70;92.50;;;;;;5025568;28;20050;-81
2020/12/26 00:41:16;;;;;;;4.68;2.33;;;2.80;92.50;;;;;;5028842;28;20493;-79
2020/12/26 00:43:42;;;;;;;3.95;2.30;;;2.80;92.50;;;;;;5027094;28;20069;-80
2020/12/26 00:46:08;;;;;;;6.38;2.28;;;2.80;92.50;;;;;;5021724;28;20041;-81
2020/12/26 00:48:34;;;;;;;4.65;2.60;;;2.80;92.50;;;;;;5038751;28;20560;-78
2020/12/26 00:51:02;;;;;;;5.68;3.33;;;2.80;92.50;;;;;;5040189;28;20541;-81
2020/12/26 00:53:29;;;;;;;6.82;3.47;;;2.80;92.50;;;;;;5026367;28;20394;-80
2020/12/26 00:55:55;;;;;;;6.30;3.45;;;2.80;92.50;;;;;;5025134;28;20123;-80
2020/12/26 00:58:20;;;;;;;7.60;3.35;;;2.90;92.50;;;;;;5025142;28;20525;-80
2020/12/26 01:00:46;;;;;;;5.13;2.67;;;2.90;92.50;;;;;;5028282;28;20052;-81
2020/12/26 01:03:12;;;;;;;4.43;1.95;;;2.90;92.50;;;;;;5026340;28;20061;-78
2020/12/26 01:05:38;;;;;;;4.53;1.83;;;3.00;92.50;;;;;;5025954;28;20191;-81
2020/12/26 01:08:04;;;;;;;3.70;1.73;;;3.00;92.40;;;;;;5026790;28;20629;-78
2020/12/26 01:10:30;;;;;;;3.90;1.90;;;3.00;92.40;;;;;;5028145;28;20136;-81
2020/12/26 01:12:56;;;;;;;6.13;1.60;;;3.00;92.40;;;;;;5024163;28;20137;-81
2020/12/26 01:15:22;;;;;;;3.75;1.50;;;3.10;92.40;;;;;;5027778;28;20485;-82
2020/12/26 01:17:48;;;;;;;3.60;1.45;;;3.20;92.30;;;;;;5026405;28;20056;-81
2020/12/26 01:20:14;;;;;;;2.28;1.00;;;3.20;92.20;;;;;;5025129;28;20065;-81
2020/12/26 01:22:39;;;;;;;3.00;1.40;;;3.40;92.10;;;;;;5026230;28;20053;-79
2020/12/26 01:25:06;;;;;;;2.10;1.20;;;3.40;91.90;;;;;;5017070;28;20063;-82
2020/12/26 01:27:33;;;;;;;5.35;1.13;;;3.40;91.90;;;;;;5018620;28;20120;-81
2020/12/26 01:29:59;;;;;;;5.72;1.15;;;3.50;92.00;;;;;;5020927;28;20049;-79
2020/12/26 01:32:27;;;;;;;3.20;1.00;;;3.60;91.90;;;;;;5025284;28;20398;-82
2020/12/26 01:35:00;;;;;;;4.57;1.15;;;3.60;92.00;;;;;;5037847;28;20051;-81
2020/12/26 01:37:27;;;;;;;3.22;1.70;;;3.70;92.10;;;;;;5025131;28;20132;-82
2020/12/26 01:39:53;;;;;;;6.63;1.38;;;3.70;92.10;;;;;;5022370;28;20076;-81
2020/12/26 01:42:19;;;;;;;5.22;1.13;;;3.70;92.30;;;;;;5040496;28;20139;-81
2020/12/26 01:44:45;;;;;;;3.70;0.90;;;3.80;92.30;;;;;;5025531;28;20049;-81
2020/12/26 01:47:12;;;;;;;2.78;0.88;;;3.80;92.40;;;;;;5026168;28;20049;-82
2020/12/26 01:49:38;;;;;;;3.67;1.15;;;3.80;92.50;;;;;;5025780;28;20140;-78
2020/12/26 01:52:08;;;;;;;2.55;0.82;;;3.80;92.50;;;;;;5026837;28;20565;-81
2020/12/26 01:54:34;;;;;;;2.03;0.95;;;3.90;92.50;;;;;;5026274;28;20045;-81
2020/12/26 01:56:59;;;;;;;4.20;0.98;;;3.90;92.60;;;;;;5026267;28;20053;-82
2020/12/26 01:59:25;;;;;;;1.85;1.02;;;3.90;92.60;;;;;;5022731;28;20135;-81
2020/12/26 02:01:51;;;;;;;1.63;0.73;;;3.80;92.70;;;;;;5021642;28;20081;-82
2020/12/26 02:04:17;;;;;;;2.70;0.88;;;3.90;92.70;;;;;;5018558;28;20132;-81
2020/12/26 02:06:50;;;;;;;2.45;1.10;;;4.00;92.70;;;;;;5024035;28;20548;-81
2020/12/26 02:09:16;;;;;;;2.72;1.25;;;4.00;92.70;;;;;;5025686;28;20060;-80
2020/12/26 02:11:42;;;;;;;3.60;1.00;;;4.00;92.80;;;;;;5025988;28;20046;-80
2020/12/26 02:14:08;;;;;;;2.97;1.70;;;4.00;92.90;;;;;;5020973;28;20393;-81
2020/12/26 02:16:48;;;;;;;5.28;2.25;;;4.00;93.00;;;;;;5028206;28;20048;-81
2020/12/26 02:19:15;;;;;;;4.90;2.72;;;4.00;93.00;;;;;;5015569;28;20088;-81
2020/12/26 02:21:42;;;;;;;3.22;1.38;;;3.90;93.10;;;;;;5018042;28;20123;-81
2020/12/26 02:24:09;;;;;;;3.47;1.13;;;3.90;93.10;;;;;;5039398;28;20057;-81
2020/12/26 02:26:35;;;;;;;1.60;1.00;;;3.80;93.20;;;;;;5025913;28;20242;-80
2020/12/26 02:29:02;;;;;;;5.00;2.00;;;3.90;93.30;;;;;;5021930;28;20057;-81
2020/12/26 02:31:28;;;;;;;3.55;1.45;;;3.80;93.10;;;;;;5025741;28;20053;-79
2020/12/26 02:33:54;;;;;;;3.13;0.70;;;3.80;93.20;;;;;;5020884;28;20187;-81
2020/12/26 02:36:20;;;;;;;2.58;0.93;;;3.80;93.20;;;;;;5017675;28;20049;-80
2020/12/26 02:38:46;;;;;;;2.17;0.73;;;3.80;93.20;;;;;;5021433;28;20505;-80
2020/12/26 02:41:13;;;;;;;3.47;0.90;;;3.80;93.10;;;;;;5021413;28;20100;-80
2020/12/26 02:43:38;;;;;;;1.88;0.70;;;3.80;93.10;;;;;;5024936;28;20489;-78
2020/12/26 02:46:05;;;;;;;1.73;0.73;;;3.70;93.20;;;;;;5027703;28;20076;-80
2020/12/26 02:48:31;;;;;;;2.22;0.93;;;3.70;93.20;;;;;;5024482;28;20049;-80
2020/12/26 02:50:57;;;;;;;3.05;0.85;;;3.70;93.20;;;;;;5024747;28;20059;-81
2020/12/26 02:53:23;;;;;;;2.15;1.00;;;3.60;93.30;;;;;;5026415;28;20076;-80
2020/12/26 02:55:50;;;;;;;3.00;0.73;;;3.60;93.30;;;;;;5025226;28;20054;-80
2020/12/26 02:58:15;;;;;;;2.58;0.90;;;3.60;93.30;;;;;;5024557;28;20053;-80
2020/12/26 03:00:42;;;;;;;2.75;0.90;;;3.60;93.30;;;;;;5026125;28;20429;-79
2020/12/26 03:03:08;;;;;;;9.38;6.18;;;3.60;93.40;;;;;;5026647;28;20485;-80
2020/12/26 03:05:33;;;;;;;5.32;1.10;;;3.60;93.50;;;;;;5026051;28;20045;-80
2020/12/26 03:07:59;;;;;;;3.67;1.20;;;3.70;93.40;;;;;;5027076;28;20053;-80
2020/12/26 03:10:25;;;;;;;3.03;1.10;;;3.80;93.30;;;;;;5024798;28;20104;-80
2020/12/26 03:12:51;;;;;;;5.45;2.40;;;3.70;93.20;;;;;;5019287;28;20080;-80
2020/12/26 03:15:17;;;;;;;2.88;1.15;;;3.70;93.30;;;;;;5026564;28;20053;-79
2020/12/26 03:17:43;;;;;;;2.88;0.70;;;3.80;93.20;;;;;;5023965;28;20045;-79
2020/12/26 03:20:10;;;;;;;3.65;0.88;;;3.80;93.20;;;;;;5024480;28;20045;-80
2020/12/26 03:22:35;;;;;;;3.28;1.10;;;3.80;93.10;;;;;;5027152;28;20049;-80
2020/12/26 03:25:02;;;;;;;4.57;1.13;;;3.70;93.10;;;;;;5026522;28;20108;-81
2020/12/26 03:27:28;;;;;;;3.03;0.98;;;3.70;93.10;;;;;;5025125;28;20049;-80
2020/12/26 03:29:54;;;;;;;3.47;1.50;;;3.90;93.00;;;;;;5025344;28;20524;-80
2020/12/26 03:32:21;;;;;;;3.63;1.40;;;3.80;92.80;;;;;;5045834;28;20064;-80
2020/12/26 03:34:47;;;;;;;4.03;1.33;;;3.80;92.80;;;;;;5034607;28;20064;-78
2020/12/26 03:37:13;;;;;;;4.05;1.70;;;3.70;92.80;;;;;;5023642;28;20390;-80
2020/12/26 03:39:40;;;;;;;4.38;1.48;;;3.80;92.60;;;;;;5024850;28;20045;-78
2020/12/26 03:42:07;;;;;;;4.47;1.92;;;3.90;92.60;;;;;;5025884;28;20053;-80
2020/12/26 03:44:33;;;;;;;3.20;1.67;;;3.80;92.60;;;;;;5026606;28;20062;-80
2020/12/26 03:46:59;;;;;;;3.53;0.93;;;3.80;92.50;;;;;;5024785;28;20053;-80
2020/12/26 03:49:25;;;;;;;3.88;1.15;;;3.80;92.50;;;;;;5025058;28;20067;-80
2020/12/26 03:51:51;;;;;;;4.03;1.30;;;3.90;92.50;;;;;;5028736;28;20072;-81
2020/12/26 03:54:17;;;;;;;3.97;1.30;;;3.90;92.40;;;;;;5034013;28;20060;-80
2020/12/26 03:56:43;;;;;;;3.75;1.00;;;3.80;92.40;;;;;;5019532;28;20092;-78
2020/12/26 03:59:09;;;;;;;5.07;1.17;;;3.90;92.40;;;;;;5031597;28;20401;-81
2020/12/26 04:01:35;;;;;;;3.05;1.05;;;3.80;92.30;;;;;;5041518;28;20592;-80
2020/12/26 04:04:02;;;;;;;4.18;1.13;;;3.80;92.50;;;;;;5027894;28;20040;-80
2020/12/26 04:06:28;;;;;;;2.83;0.98;;;3.70;92.50;;;;;;5032186;28;20072;-80
2020/12/26 04:08:53;;;;;;;5.28;1.27;;;3.70;92.60;;;;;;5030530;28;20054;-81
2020/12/26 04:11:19;;;;;;;3.72;0.90;;;3.70;92.60;;;;;;5025922;28;20104;-80
2020/12/26 04:13:45;;;;;;;4.03;1.73;;;3.60;92.70;;;;;;5043783;28;20056;-79
2020/12/26 04:16:11;;;;;;;3.15;1.10;;;3.70;92.80;;;;;;5030775;28;20104;-80
2020/12/26 04:18:38;;;;;;;2.67;0.85;;;3.70;92.80;;;;;;5028773;28;20042;-80
2020/12/26 04:21:04;;;;;;;3.08;1.00;;;3.70;92.80;;;;;;5029332;28;20284;-80
2020/12/26 04:23:31;;;;;;;3.75;1.15;;;3.60;92.80;;;;;;5023450;28;20148;-81
2020/12/26 04:25:57;;;;;;;4.07;1.05;;;3.60;93.10;;;;;;5019792;28;20064;-81
2020/12/26 04:28:22;;;;;;;3.40;1.17;;;3.60;92.80;;;;;;5029783;28;20545;-81
2020/12/26 04:30:48;;;;;;;1.92;0.98;;;3.60;92.80;;;;;;5027582;28;20052;-81
2020/12/26 04:33:14;;;;;;;4.15;1.05;;;3.60;92.90;;;;;;5023278;28;20118;-80
2020/12/26 04:35:40;;;;;;;3.17;1.20;;;3.70;92.80;;;;;;5026339;28;20061;-81
2020/12/26 04:38:06;;;;;;;2.30;1.00;;;3.60;92.80;;;;;;5029906;28;20398;-81
2020/12/26 04:40:32;;;;;;;3.20;1.30;;;3.60;92.70;;;;;;5029330;28;20056;-81
2020/12/26 04:42:59;;;;;;;3.78;1.35;;;3.60;92.70;;;;;;5028054;28;20132;-81
2020/12/26 04:45:25;;;;;;;6.40;1.35;;;3.50;92.60;;;;;;5027602;28;20136;-81
2020/12/26 04:47:57;;;;;;;3.92;1.02;;;3.50;92.70;;;;;;5028543;28;20049;-81
2020/12/26 04:50:29;;;;;;;2.88;1.40;;;3.50;92.70;;;;;;5029676;28;20053;-81
2020/12/26 04:52:59;;;;;;;3.85;1.70;;;3.50;92.80;;;;;;5027690;28;20042;-81
2020/12/26 04:55:34;;;;;;;4.95;1.30;;;3.60;92.80;;;;;;5028360;28;20486;-81
2020/12/26 04:58:10;;;;;;;2.53;1.20;;;3.60;92.80;;;;;;5030067;28;20102;-81
2020/12/26 05:00:38;;;;;;;3.45;1.10;;;3.60;92.90;;;;;;5028682;28;20060;-81
2020/12/26 05:03:12;;;;;;;5.55;1.52;;;3.60;93.00;;;;;;5028306;28;20045;-81
2020/12/26 05:05:40;;;;;;;6.68;1.27;;;3.60;93.10;;;;;;5028775;28;20052;-80
2020/12/26 05:08:11;;;;;;;3.78;1.25;;;3.70;93.10;;;;;;5028756;28;20053;-81
2020/12/26 05:10:39;;;;;;;3.92;1.63;;;3.70;93.10;;;;;;5034049;28;20057;-81
2020/12/26 05:13:06;;;;;;;2.70;1.30;;;3.70;93.10;;;;;;5039525;28;20179;-81
2020/12/26 05:15:32;;;;;;;7.20;1.73;;;3.80;93.10;;;;;;5026639;28;20041;-81
2020/12/26 05:17:59;;;;;;;4.53;1.20;;;3.80;93.00;;;;;;5026864;28;20041;-82
2020/12/26 05:20:25;;;;;;;4.72;1.73;;;3.90;93.00;;;;;;5040166;28;20053;-81
2020/12/26 05:23:10;;;;;;;5.25;2.63;;;3.90;92.90;;;;;;5044089;28;20081;-81
2020/12/26 05:25:54;;;;;;;3.38;1.30;;;3.90;93.00;;;;;;5029254;28;20567;-81
2020/12/26 05:28:21;;;;;;;6.30;1.67;;;3.80;93.00;;;;;;5017548;28;20050;-81
2020/12/26 05:30:49;;;;;;;6.32;1.50;;;3.90;93.00;;;;;;5030006;28;20567;-79
2020/12/26 05:33:16;;;;;;;4.40;1.67;;;3.80;93.00;;;;;;5028012;28;20438;-81
2020/12/26 05:35:50;;;;;;;6.57;1.63;;;3.90;93.00;;;;;;5025098;28;20083;-81
2020/12/26 05:38:24;;;;;;;3.53;1.60;;;3.90;93.00;;;;;;5013653;28;20042;-81
2020/12/26 05:40:55;;;;;;;2.90;1.60;;;3.80;93.10;;;;;;5025366;28;20046;-80
2020/12/26 05:43:29;;;;;;;5.60;1.67;;;3.80;93.00;;;;;;5025971;28;20061;-80
2020/12/26 05:45:55;;;;;;;5.72;1.55;;;3.80;93.10;;;;;;5018019;28;20383;-79
2020/12/26 05:48:23;;;;;;;4.03;1.58;;;3.70;93.10;;;;;;5013029;28;20042;-80
2020/12/26 05:50:56;;;;;;;7.97;2.17;;;3.70;93.20;;;;;;5024767;28;20099;-81
2020/12/26 05:53:25;;;;;;;3.80;1.77;;;3.70;93.20;;;;;;5027637;28;20038;-81
2020/12/26 05:55:51;;;;;;;4.05;1.73;;;3.80;93.30;;;;;;5028563;28;20045;-81
2020/12/26 05:58:25;;;;;;;7.22;1.90;;;3.80;93.40;;;;;;5027800;28;20076;-80
2020/12/26 06:00:52;;;;;;;5.90;1.90;;;3.80;93.30;;;;;;5025462;28;20065;-80
2020/12/26 06:03:26;;;;;;;5.32;1.98;;;3.70;93.30;;;;;;5028495;28;20064;-80
2020/12/26 06:05:57;;;;;;;5.47;2.38;;;3.80;93.40;;;;;;5033075;28;20042;-80
2020/12/26 06:08:25;;;;;;;5.72;2.20;;;3.80;93.40;;;;;;5022429;28;20120;-80
2020/12/26 06:10:54;;;;;;;6.75;2.35;;;3.80;93.40;;;;;;5026546;28;20088;-80
2020/12/26 06:13:22;;;;;;;5.35;2.20;;;3.80;93.40;;;;;;5026539;28;20045;-80
2020/12/26 06:15:49;;;;;;;5.40;2.20;;;3.80;93.30;;;;;;5026200;28;20041;-78
2020/12/26 06:18:18;;;;;;;5.25;2.50;;;3.80;93.40;;;;;;5029229;28;20045;-79
2020/12/26 06:20:44;;;;;;;6.13;2.30;;;4.00;93.30;;;;;;5027484;28;20049;-80
2020/12/26 06:23:24;;;;;;;4.63;2.35;;;3.90;93.30;;;;;;5025105;28;20045;-81
2020/12/26 06:25:55;;;;;;;5.50;2.65;;;3.90;93.20;;;;;;5025835;28;20050;-79
2020/12/26 06:28:31;;;;;;;4.68;2.50;;;4.00;93.30;;;;;;5027674;28;20049;-81
2020/12/26 06:31:08;;;;;;;5.53;2.47;;;4.00;93.40;;;;;;5028866;28;20061;-80
2020/12/26 06:33:42;;;;;;;4.68;2.50;;;4.00;93.40;;;;;;5041466;28;20049;-80
2020/12/26 06:36:09;;;;;;;5.82;2.92;;;4.00;93.30;;;;;;5029600;28;20509;-80
2020/12/26 06:38:37;;;;;;;6.53;2.60;;;4.00;93.30;;;;;;5027879;28;20067;-81
2020/12/26 06:41:13;;;;;;;5.05;2.75;;;4.00;93.40;;;;;;5022461;28;20045;-80
2020/12/26 06:43:57;;;;;;;5.93;3.03;;;4.00;93.40;;;;;;5010266;28;20053;-80
2020/12/26 06:46:23;;;;;;;6.72;2.70;;;4.00;93.40;;;;;;5026262;28;20049;-80
2020/12/26 06:48:50;;;;;;;9.05;3.50;;;4.00;93.50;;;;;;5026218;28;20041;-78
2020/12/26 06:51:32;;;;;;;7.05;3.40;;;4.00;93.50;;;;;;5024172;28;20048;-80
2020/12/26 06:54:02;;;;;;;5.60;3.20;;;4.00;93.50;;;;;;5025647;28;20057;-81
2020/12/26 06:56:34;;;;;;;5.57;3.00;;;4.00;93.50;;;;;;5026386;28;20080;-81
2020/12/26 06:59:06;;;;;;;8.25;3.72;;;4.00;93.50;;;;;;5034739;28;20099;-80
2020/12/26 07:01:44;;;;;;;5.18;2.88;;;4.00;93.50;;;;;;5024569;28;20061;-81
2020/12/26 07:04:12;;;;;;;6.07;3.20;;;4.00;93.60;;;;;;5024897;28;20672;-80
2020/12/26 07:06:44;;;;;;;7.30;3.40;;;4.00;93.60;;;;;;5025694;28;20481;-81
2020/12/26 07:09:11;;;;;;;5.05;3.15;;;4.00;93.60;;;;;;5041185;28;20650;-80
2020/12/26 07:11:49;;;;;;;6.53;3.47;;;4.00;93.60;;;;;;5024931;28;20045;-77
2020/12/26 07:14:37;;;;;;;6.13;3.03;;;4.00;93.60;;;;;;5016587;28;20474;-79
2020/12/26 07:17:12;;;;;;;6.38;3.20;;;4.00;93.60;;;;;;5030692;28;20470;-81
2020/12/26 07:19:42;;;;;;;6.90;3.13;;;4.00;93.60;;;;;;5010861;28;20058;-81
2020/12/26 07:22:29;;;;;;;7.00;3.08;;;4.00;93.60;;;;;;5025806;28;20053;-81
2020/12/26 07:25:06;;;;;;;7.38;3.17;;;4.00;93.60;;;;;;5034031;28;20046;-81
2020/12/26 07:27:35;;;;;;;5.55;3.00;;;4.00;93.60;;;;;;5028501;28;20042;-80
2020/12/26 07:30:19;;;;;;;8.32;3.20;;;4.00;93.60;;;;;;5025511;28;20107;-80
2020/12/26 07:33:00;;;;;;;12.13;8.52;;;4.10;93.70;;;;;;5016346;28;20405;-80
2020/12/26 07:35:29;;;;;;;5.40;2.92;;;4.10;93.70;;;;;;5023734;28;20046;-81
2020/12/26 07:38:03;;;;;;;5.07;2.70;;;4.10;93.60;;;;;;5025403;28;20056;-79
2020/12/26 07:40:34;;;;;;;6.97;3.15;;;4.10;93.70;;;;;;5026696;28;20103;-81
2020/12/26 07:43:04;;;;;;;5.47;2.50;;;4.10;93.70;;;;;;5026689;28;20053;-81
2020/12/26 07:45:31;;;;;;;3.88;2.65;;;4.10;93.60;;;;;;5035533;28;20497;-81
2020/12/26 07:47:59;;;;;;;6.32;2.65;;;4.20;93.70;;;;;;5024673;28;20052;-80
2020/12/26 07:50:29;;;;;;;8.48;2.63;;;4.20;93.70;;;;;;5027246;28;20513;-80
2020/12/26 07:53:01;;;;;;;4.68;2.45;;;4.20;93.70;;;;;;5026369;28;20041;-80
2020/12/26 07:55:29;;;;;;;5.60;2.42;;;4.20;93.70;;;;;;5026040;28;20080;-81
2020/12/26 07:58:02;;;;;;;6.05;2.45;;;4.20;93.80;;;;;;5024123;28;20473;-78
2020/12/26 08:00:30;;;;;;;7.60;2.40;;;4.30;93.70;;;;;;5018497;28;20439;-79
2020/12/26 08:02:58;;;;;;;4.47;2.30;;;4.30;93.70;;;;;;5038255;28;20056;-80
2020/12/26 08:05:32;;;;;;;5.63;3.00;;;4.30;93.60;;;;;;5036956;28;20379;-81
2020/12/26 08:07:59;;;;;;;6.57;2.60;;;4.30;93.60;;;;;;5041231;28;20057;-80
2020/12/26 08:10:25;;;;;;;4.82;2.42;;;4.30;93.60;;;;;;5025663;28;20065;-81
2020/12/26 08:12:59;;;;;;;6.50;2.80;;;4.40;93.70;;;;;;5024410;28;20045;-81
2020/12/26 08:15:29;;;;;;;4.40;2.45;;;4.30;93.60;;;;;;5021310;28;20398;-81
2020/12/26 08:18:01;;;;;;;6.88;2.55;;;4.40;93.70;;;;;;5041297;28;20049;-78
2020/12/26 08:20:28;;;;;;;4.63;2.53;;;4.40;93.60;;;;;;5020685;28;20076;-80
2020/12/26 08:22:54;;;;;;;4.07;2.40;;;4.30;93.50;;;;;;5025191;28;20057;-78
2020/12/26 08:25:23;;;;;;;5.57;2.55;;;4.30;93.60;;;;;;5026675;28;20053;-80
2020/12/26 08:27:50;;;;;;;6.50;2.55;;;4.30;93.60;;;;;;5025618;28;20436;-81
2020/12/26 08:30:27;;;;;;;6.25;2.50;;;4.40;93.60;;;;;;5024207;28;20121;-80
2020/12/26 08:33:10;;;;;;;6.47;2.45;;;4.30;93.60;;;;;;5032271;28;20049;-79
2020/12/26 08:35:55;;;;;;;4.40;2.65;;;4.30;93.60;;;;;;5024015;28;20106;-81
2020/12/26 08:38:26;;;;;;;5.30;2.47;;;4.40;93.60;;;;;;5019610;28;20054;-80
2020/12/26 08:40:57;;;;;;;6.25;2.38;;;4.40;93.60;;;;;;5029177;28;20640;-79
2020/12/26 08:43:24;;;;;;;6.78;2.55;;;4.40;93.60;;;;;;5027819;28;20046;-81
2020/12/26 08:45:50;;;;;;;9.55;2.80;;;4.30;93.60;;;;;;5031027;28;20083;-81
2020/12/26 08:48:23;;;;;;;4.95;3.03;;;4.40;93.60;;;;;;5032393;28;20498;-80
2020/12/26 08:50:58;;;;;;;5.10;2.60;;;4.40;93.60;;;;;;5015923;28;20053;-81
2020/12/26 08:53:24;;;;;;;5.30;2.50;;;4.40;93.60;;;;;;5018505;28;20490;-81
2020/12/26 08:55:52;;;;;;;6.68;2.70;;;4.40;93.60;;;;;;5026605;28;20077;-81
2020/12/26 08:58:32;;;;;;;7.38;2.50;;;4.40;93.60;;;;;;5028761;28;20118;-81
2020/12/26 09:01:05;;;;;;;7.28;2.78;;;4.40;93.50;;;;;;5043240;28;20052;-79
2020/12/26 09:03:33;;;;;;;5.85;2.92;;;4.40;93.50;;;;;;5029333;28;20061;-81
2020/12/26 09:06:02;;;;;;;7.50;3.03;;;4.40;93.50;;;;;;5026406;28;20065;-80
2020/12/26 09:08:35;;;;;;;6.55;2.83;;;4.40;93.50;;;;;;5029608;28;20140;-80
2020/12/26 09:11:09;;;;;;;6.40;2.80;;;4.40;93.50;;;;;;5027131;28;20041;-81
2020/12/26 09:13:47;;;;;;;6.38;2.80;;;4.40;93.50;;;;;;5030359;28;20088;-81
2020/12/26 09:16:14;;;;;;;6.55;2.72;;;4.50;93.50;;;;;;5019515;28;20075;-82
2020/12/26 09:18:48;;;;;;;8.65;3.10;;;4.50;93.50;;;;;;5029225;28;20485;-80
2020/12/26 09:21:40;;;;;;;4.70;2.78;;;4.50;93.50;;;;;;5027748;28;20045;-82
2020/12/26 09:24:19;;;;;;;6.38;2.88;;;4.50;93.50;;;;;;5041273;28;20053;-82
2020/12/26 09:26:46;;;;;;;7.07;3.00;;;4.50;93.50;;;;;;5029318;28;20045;-82
2020/12/26 09:29:22;;;;;;;4.32;2.80;;;4.50;93.50;;;;;;5027500;28;20057;-82
2020/12/26 09:31:48;;;;;;;5.40;3.40;;;4.60;93.50;;;;;;5029166;28;20041;-82
2020/12/26 09:34:15;;;;;;;6.30;3.10;;;4.60;93.50;;;;;;5036056;28;20148;-82
2020/12/26 09:36:42;;;;;;;4.75;2.70;;;4.60;93.50;;;;;;5027758;28;20064;-82
2020/12/26 09:39:08;;;;;;;5.07;3.00;;;4.60;93.50;;;;;;5027091;28;20096;-81
2020/12/26 09:41:48;;;;;;;6.05;3.17;;;4.70;93.40;;;;;;5026947;28;20045;-81
2020/12/26 09:44:15;;;;;;;5.72;3.00;;;4.70;93.40;;;;;;5030730;28;20045;-82
2020/12/26 09:46:42;;;;;;;5.63;3.03;;;4.70;93.30;;;;;;5026090;28;20045;-83
2020/12/26 09:49:10;;;;;;;5.68;2.90;;;4.70;93.30;;;;;;5039349;28;21881;-80
2020/12/26 09:51:36;;;;;;;6.15;3.33;;;4.80;93.20;;;;;;5029050;28;20136;-81
2020/12/26 09:54:03;;;;;;;5.25;3.10;;;4.80;93.20;;;;;;5021270;28;20120;-82
2020/12/26 09:56:29;;;;;;;6.10;3.30;;;4.90;93.20;;;;;;5021549;28;20053;-82
2020/12/26 09:58:56;;;;;;;4.68;3.13;;;4.90;93.00;;;;;;5027783;28;20041;-81
2020/12/26 10:01:22;;;;;;;4.70;2.95;;;5.00;93.00;;;;;;5022815;28;20045;-82
2020/12/26 10:03:50;;;;;;;6.93;2.97;;;5.10;93.00;;;;;;5026292;28;20048;-82
2020/12/26 10:06:18;;;;;;;6.60;3.15;;;5.10;92.90;;;;;;5020402;28;20124;-81
2020/12/26 10:08:45;;;;;;;6.22;2.90;;;5.20;92.90;;;;;;5029493;28;20121;-81
2020/12/26 10:11:18;;;;;;;5.53;2.75;;;5.20;92.80;;;;;;5026615;28;20497;-82
2020/12/26 10:13:46;;;;;;;4.22;2.22;;;5.30;92.70;;;;;;5028323;28;20128;-80
2020/12/26 10:16:17;;;;;;;7.05;2.90;;;5.30;92.60;;;;;;5020227;28;20049;-82
2020/12/26 10:18:43;;;;;;;4.22;2.35;;;5.30;92.50;;;;;;5036576;28;20409;-82
2020/12/26 10:21:09;;;;;;;5.18;2.65;;;5.40;92.50;;;;;;5028685;28;20045;-81
2020/12/26 10:23:35;;;;;;;6.07;2.60;;;5.40;92.40;;;;;;5037528;28;20132;-82
2020/12/26 10:26:05;;;;;;;4.78;2.67;;;5.50;92.30;;;;;;5026668;28;20128;-79
2020/12/26 10:28:31;;;;;;;7.55;2.50;;;5.50;92.00;;;;;;5026766;28;20061;-81
2020/12/26 10:30:57;;;;;;;6.15;2.60;;;5.60;92.00;;;;;;5030705;28;20041;-81
2020/12/26 10:33:23;;;;;;;4.90;2.50;;;5.60;92.10;;;;;;5026901;28;20121;-81
2020/12/26 10:35:49;;;;;;;6.03;2.28;;;5.60;92.00;;;;;;5024457;28;20053;-78
2020/12/26 10:38:14;;;;;;;5.85;2.78;;;5.60;91.90;;;;;;5027561;28;20124;-82
2020/12/26 10:40:40;;;;;;;5.30;2.47;;;5.60;91.90;;;;;;5026203;28;20194;-81
2020/12/26 10:43:06;;;;;;;4.97;2.42;;;5.60;91.90;;;;;;5040449;28;20513;-79
2020/12/26 10:45:32;;;;;;;5.30;2.50;;;5.60;91.80;;;;;;5025647;28;20524;-79
2020/12/26 10:47:58;;;;;;;4.45;2.50;;;5.60;91.80;;;;;;5023890;28;20061;-79
2020/12/26 10:50:24;;;;;;;3.30;2.58;;;5.60;91.90;;;;;;5028287;28;20790;-80
2020/12/26 10:52:50;;;;;;;6.72;2.40;;;5.70;91.70;;;;;;5027906;28;20041;-81
2020/12/26 10:55:16;;;;;;;4.80;2.50;;;5.70;91.60;;;;;;5008873;28;20053;-81
2020/12/26 10:57:45;;;;;;;5.85;2.60;;;5.70;91.60;;;;;;5033432;28;20068;-82
2020/12/26 11:00:12;;;;;;;4.28;2.17;;;5.70;91.70;;;;;;5022446;28;20080;-81
2020/12/26 11:02:38;;;;;;;6.07;2.47;;;5.70;91.60;;;;;;5025338;28;20045;-80
2020/12/26 11:05:05;;;;;;;5.38;2.80;;;5.70;91.50;;;;;;5027846;28;20132;-79
2020/12/26 11:07:33;;;;;;;4.80;2.30;;;5.60;91.40;;;;;;5026288;28;20048;-79
2020/12/26 11:10:00;;;;;;;6.10;2.38;;;5.60;91.50;;;;;;5026396;28;20046;-80
2020/12/26 11:12:25;;;;;;;4.68;2.40;;;5.60;91.60;;;;;;5042148;28;20045;-80
2020/12/26 11:14:51;;;;;;;5.65;2.55;;;5.60;91.50;;;;;;5023053;28;20049;-79
2020/12/26 11:17:17;;;;;;;4.22;2.70;;;5.70;91.40;;;;;;5022726;28;20398;-80
2020/12/26 11:19:43;;;;;;;4.38;2.50;;;5.70;91.50;;;;;;5026955;28;20052;-80
2020/12/26 11:22:09;;;;;;;4.68;2.58;;;5.60;91.50;;;;;;5023993;28;20053;-79
2020/12/26 11:24:35;;;;;;;5.28;2.85;;;5.70;91.50;;;;;;5025627;28;20041;-79
2020/12/26 11:27:00;;;;;;;4.90;2.40;;;5.60;91.50;;;;;;5021694;28;21224;-80
2020/12/26 11:29:27;;;;;;;4.50;2.42;;;5.70;91.50;;;;;;5021666;28;20040;-79
2020/12/26 11:31:56;;;;;;;6.13;2.60;;;5.70;90.90;;;;;;5022767;28;20061;-79
2020/12/26 11:34:22;;;;;;;5.32;2.80;;;5.70;91.10;;;;;;5023860;28;20049;-79
2020/12/26 11:36:48;;;;;;;4.93;2.75;;;5.70;91.20;;;;;;5022831;28;20552;-80
2020/12/26 11:39:13;;;;;;;5.30;2.90;;;5.70;91.10;;;;;;5018080;28;20123;-79
2020/12/26 11:41:39;;;;;;;5.40;2.67;;;5.70;91.20;;;;;;5038869;28;20053;-79
2020/12/26 11:44:05;;;;;;;6.20;3.00;;;5.70;91.20;;;;;;5033367;28;20050;-79
2020/12/26 11:46:31;;;;;;;5.28;2.92;;;5.70;91.30;;;;;;5016129;28;20057;-80
2020/12/26 11:48:57;;;;;;;7.50;2.88;;;5.70;91.40;;;;;;5026996;28;20409;-80
2020/12/26 11:51:23;;;;;;;6.70;2.85;;;5.80;91.20;;;;;;5034754;28;20054;-80
2020/12/26 11:53:49;;;;;;;4.38;2.85;;;5.70;91.20;;;;;;5036956;28;20060;-79
2020/12/26 11:56:16;;;;;;;6.20;3.10;;;5.80;91.30;;;;;;5026437;28;20560;-80
2020/12/26 11:58:43;;;;;;;7.43;3.13;;;5.80;91.10;;;;;;5038887;28;20485;-80
2020/12/26 12:01:10;;;;;;;6.20;2.85;;;5.80;91.10;;;;;;5027153;28;20490;-78
2020/12/26 12:03:36;;;;;;;5.95;2.80;;;5.80;91.10;;;;;;5020455;28;20111;-79
2020/12/26 12:06:04;;;;;;;5.80;2.70;;;5.80;90.80;;;;;;5016901;28;20427;-80
2020/12/26 12:08:30;;;;;;;5.40;2.65;;;5.90;90.80;;;;;;5020680;28;20049;-79
2020/12/26 12:10:56;;;;;;;5.90;2.78;;;5.90;90.60;;;;;;5017970;28;20398;-78
2020/12/26 12:13:22;;;;;;;7.38;2.92;;;5.90;90.80;;;;;;5028285;28;20073;-78
2020/12/26 12:15:47;;;;;;;5.15;2.60;;;5.90;90.80;;;;;;5022097;28;20048;-79
2020/12/26 12:18:13;;;;;;;7.18;2.63;;;5.90;90.70;;;;;;5027813;28;20056;-79
2020/12/26 12:20:39;;;;;;;4.57;2.80;;;5.80;90.80;;;;;;5025692;28;20080;-79
2020/12/26 12:23:05;;;;;;;5.72;2.75;;;5.90;90.50;;;;;;5020143;28;20046;-80
2020/12/26 12:25:31;;;;;;;7.07;2.67;;;5.90;90.70;;;;;;5028065;28;20058;-80
2020/12/26 12:27:58;;;;;;;6.53;2.58;;;6.00;90.60;;;;;;5029272;28;20060;-80
2020/12/26 12:30:25;;;;;;;6.25;2.58;;;5.90;90.50;;;;;;5028162;28;20123;-79
2020/12/26 12:32:51;;;;;;;3.88;2.30;;;6.00;90.40;;;;;;5024581;28;20053;-81
2020/12/26 12:35:17;;;;;;;7.80;2.90;;;6.10;89.50;;;;;;5019117;28;20049;-80
2020/12/26 12:37:47;;;;;;;6.38;2.92;;;6.10;89.90;;;;;;5027554;28;20046;-80
2020/12/26 12:40:13;;;;;;;6.25;2.67;;;6.10;90.10;;;;;;5017667;28;20646;-79
2020/12/26 12:42:39;;;;;;;5.15;2.20;;;6.00;90.20;;;;;;5006095;28;20041;-79
2020/12/26 12:45:05;;;;;;;5.57;2.42;;;6.10;90.20;;;;;;5023028;28;20447;-78
2020/12/26 12:47:32;;;;;;;5.60;2.40;;;6.10;89.80;;;;;;5022696;28;20045;-78
2020/12/26 12:49:58;;;;;;;5.55;2.20;;;6.10;90.10;;;;;;5034881;28;20052;-79
2020/12/26 12:52:24;;;;;;;5.95;2.72;;;6.10;90.10;;;;;;5018966;28;20482;-78
2020/12/26 12:54:50;;;;;;;4.93;2.20;;;6.10;89.90;;;;;;5025515;28;20130;-79
2020/12/26 12:57:15;;;;;;;5.55;2.40;;;6.10;89.80;;;;;;5017859;28;20046;-79
2020/12/26 12:59:42;;;;;;;4.40;2.80;;;6.10;90.00;;;;;;5042061;28;20050;-78
2020/12/26 13:02:09;;;;;;;6.05;2.20;;;6.10;90.00;;;;;;5033825;28;20076;-79
2020/12/26 13:04:35;;;;;;;7.68;3.03;;;6.10;89.70;;;;;;5012687;28;20516;-79